Time;durP1;ratioP1;P1;durP2;ratioP2;P2;SDS_P1;SDS_P2;PMS_P1;PMS_P2;Temp;Humidity;BMP_temperature;BMP_pressure;BME280_temperature;BME280_humidity;BME280_pressure;Samples;Min_cycle;Max_cycle;Signal;HPM_P1;HPM_P2
2021/04/28 00:01:35;;;;;;;0.57;0.57;;;11.80;83.20;;;;;;4937273;29;20199;-78
2021/04/28 00:04:00;;;;;;;0.60;0.60;;;11.70;83.70;;;;;;4937088;29;20491;-78
2021/04/28 00:06:34;;;;;;;0.28;0.28;;;11.70;83.90;;;;;;4937459;29;20176;-79
2021/04/28 00:09:01;;;;;;;1.20;0.60;;;11.60;84.00;;;;;;4937367;29;20619;-79
2021/04/28 00:11:26;;;;;;;0.70;0.70;;;11.50;84.30;;;;;;4951693;28;20199;-79
2021/04/28 00:13:53;;;;;;;11.30;1.60;;;11.60;84.10;;;;;;4937371;29;20178;-77
2021/04/28 00:16:25;;;;;;;0.63;0.55;;;11.70;83.60;;;;;;4937232;29;20664;-78
2021/04/28 00:18:51;;;;;;;0.55;0.55;;;11.70;84.10;;;;;;4937298;29;20155;-78
2021/04/28 00:21:17;;;;;;;0.70;0.70;;;11.70;84.10;;;;;;4936701;29;20199;-78
2021/04/28 00:23:43;;;;;;;0.63;0.63;;;11.60;84.60;;;;;;4937300;29;20180;-77
2021/04/28 00:26:18;;;;;;;0.63;0.63;;;11.60;84.60;;;;;;4937109;29;20178;-80
2021/04/28 00:28:44;;;;;;;2.70;1.25;;;11.60;84.30;;;;;;4952012;29;20682;-78
2021/04/28 00:31:10;;;;;;;1.80;0.50;;;11.40;84.60;;;;;;4936299;29;20226;-77
2021/04/28 00:33:36;;;;;;;0.80;0.80;;;11.30;84.90;;;;;;4936785;29;20206;-77
2021/04/28 00:36:02;;;;;;;0.65;0.65;;;11.30;85.50;;;;;;4935669;29;20245;-79
2021/04/28 00:38:28;;;;;;;22.80;2.13;;;11.40;85.20;;;;;;4936906;29;20167;-78
2021/04/28 00:40:54;;;;;;;0.88;0.88;;;11.40;85.40;;;;;;4936762;29;20195;-79
2021/04/28 00:43:20;;;;;;;0.55;0.55;;;11.40;85.20;;;;;;4936832;29;20171;-78
2021/04/28 00:45:46;;;;;;;0.43;0.43;;;11.30;85.50;;;;;;4936766;29;20159;-78
2021/04/28 00:48:12;;;;;;;0.20;0.20;;;11.40;85.40;;;;;;4936363;29;20671;-78
2021/04/28 00:50:46;;;;;;;0.60;0.60;;;11.50;85.30;;;;;;4936638;29;20218;-78
2021/04/28 00:53:17;;;;;;;0.88;0.88;;;11.50;85.40;;;;;;4936687;29;20208;-78
2021/04/28 00:55:44;;;;;;;0.50;0.50;;;11.50;85.50;;;;;;4936612;29;20156;-79
2021/04/28 00:58:10;;;;;;;0.70;0.70;;;11.30;85.50;;;;;;4934876;29;20167;-79
2021/04/28 01:00:38;;;;;;;0.50;0.50;;;11.30;85.60;;;;;;4936397;29;20666;-75
2021/04/28 01:03:04;;;;;;;0.75;0.75;;;11.20;86.00;;;;;;4936436;29;20226;-79
2021/04/28 01:05:30;;;;;;;0.70;0.70;;;11.20;86.30;;;;;;4936156;29;20167;-79
2021/04/28 01:07:56;;;;;;;0.40;0.40;;;11.10;86.00;;;;;;4967092;28;20203;-79
2021/04/28 01:10:34;;;;;;;1.55;1.05;;;11.20;86.30;;;;;;4936232;29;20779;-78
2021/04/28 01:13:00;;;;;;;0.38;0.38;;;11.20;86.30;;;;;;4936351;29;20174;-79
2021/04/28 01:15:28;;;;;;;2.15;0.70;;;11.20;86.00;;;;;;4935918;29;20159;-79
2021/04/28 01:17:55;;;;;;;0.80;0.80;;;11.10;86.40;;;;;;4936213;29;20688;-77
2021/04/28 01:20:24;;;;;;;0.47;0.47;;;11.00;86.40;;;;;;4936124;29;20219;-79
2021/04/28 01:22:50;;;;;;;1.23;0.73;;;10.90;86.80;;;;;;4934682;29;20187;-78
2021/04/28 01:25:19;;;;;;;52.40;1.15;;;11.00;86.50;;;;;;4936203;29;20165;-77
2021/04/28 01:27:54;;;;;;;0.57;0.57;;;11.00;86.60;;;;;;4935996;29;20282;-78
2021/04/28 01:30:20;;;;;;;0.60;0.60;;;10.90;87.00;;;;;;4934832;29;20203;-79
2021/04/28 01:32:49;;;;;;;0.43;0.43;;;10.90;86.80;;;;;;4935657;29;20159;-78
2021/04/28 01:35:17;;;;;;;0.52;0.52;;;11.00;87.50;;;;;;4936045;29;20247;-77
2021/04/28 01:37:44;;;;;;;0.90;0.90;;;10.80;87.30;;;;;;4935878;29;20198;-78
2021/04/28 01:40:12;;;;;;;0.77;0.77;;;10.90;87.20;;;;;;4935979;29;20190;-78
2021/04/28 01:42:38;;;;;;;0.30;0.30;;;11.00;86.70;;;;;;4934855;29;20156;-78
2021/04/28 01:45:05;;;;;;;0.65;0.65;;;10.90;86.90;;;;;;4935846;29;20700;-76
2021/04/28 01:47:31;;;;;;;0.32;0.32;;;11.00;86.70;;;;;;4935806;29;20175;-78
2021/04/28 01:49:58;;;;;;;0.38;0.38;;;10.90;86.90;;;;;;4950316;28;20175;-77
2021/04/28 01:52:24;;;;;;;0.35;0.35;;;10.80;87.50;;;;;;4935785;29;20203;-78
2021/04/28 01:54:49;;;;;;;0.43;0.43;;;10.80;87.20;;;;;;4935881;29;20262;-79
2021/04/28 01:57:16;;;;;;;2.67;1.33;;;10.70;87.30;;;;;;4935580;29;20171;-79
2021/04/28 01:59:43;;;;;;;1.35;1.25;;;10.60;87.80;;;;;;4935392;29;20251;-78
2021/04/28 02:02:10;;;;;;;0.68;0.68;;;10.60;87.70;;;;;;4936219;29;20286;-78
2021/04/28 02:04:37;;;;;;;0.50;0.50;;;10.70;87.50;;;;;;4935708;29;20171;-77
2021/04/28 02:07:03;;;;;;;0.65;0.65;;;10.70;87.50;;;;;;4935666;29;20174;-77
2021/04/28 02:09:30;;;;;;;1.58;1.48;;;10.80;87.20;;;;;;4935206;29;20258;-78
2021/04/28 02:11:56;;;;;;;0.93;0.77;;;10.90;86.90;;;;;;4935715;29;20290;-78
2021/04/28 02:14:22;;;;;;;5.45;1.17;;;10.90;86.80;;;;;;4935508;29;20211;-77
2021/04/28 02:16:49;;;;;;;0.52;0.45;;;10.70;87.20;;;;;;4935599;29;20168;-76
2021/04/28 02:19:16;;;;;;;0.85;0.75;;;10.60;87.60;;;;;;4935202;29;20176;-77
2021/04/28 02:21:48;;;;;;;0.63;0.63;;;10.50;88.20;;;;;;4966318;28;20187;-78
2021/04/28 02:24:14;;;;;;;1.63;1.52;;;10.50;88.50;;;;;;4935559;29;20210;-77
2021/04/28 02:26:41;;;;;;;17.38;2.28;;;10.30;88.90;;;;;;4935202;29;20175;-78
2021/04/28 02:29:07;;;;;;;0.65;0.65;;;10.30;89.30;;;;;;4966224;28;20195;-77
2021/04/28 02:31:34;;;;;;;0.50;0.50;;;10.20;89.10;;;;;;4935285;29;20223;-77
2021/04/28 02:34:01;;;;;;;0.63;0.63;;;10.20;89.20;;;;;;4935264;29;20184;-78
2021/04/28 02:36:27;;;;;;;0.75;0.60;;;10.20;89.30;;;;;;4935019;29;20171;-77
2021/04/28 02:39:06;;;;;;;0.68;0.68;;;10.10;89.40;;;;;;4935542;29;20288;-77
2021/04/28 02:41:32;;;;;;;0.65;0.65;;;10.30;89.10;;;;;;4935318;29;20702;-77
2021/04/28 02:44:01;;;;;;;1.20;1.20;;;10.30;88.90;;;;;;4935317;29;20203;-76
2021/04/28 02:46:27;;;;;;;1.00;0.93;;;10.10;89.50;;;;;;4934944;29;20191;-77
2021/04/28 02:48:53;;;;;;;1.00;1.00;;;10.20;89.30;;;;;;4935235;29;20195;-77
2021/04/28 02:51:19;;;;;;;7.57;1.50;;;10.10;89.60;;;;;;4935287;29;20323;-77
2021/04/28 02:53:46;;;;;;;0.98;0.98;;;10.10;89.50;;;;;;4936239;29;20749;-78
2021/04/28 02:56:13;;;;;;;0.50;0.50;;;9.80;90.10;;;;;;4938736;29;20247;-78
2021/04/28 02:58:40;;;;;;;0.80;0.75;;;9.90;90.10;;;;;;4937457;29;20199;-77
2021/04/28 03:01:06;;;;;;;0.45;0.45;;;9.90;90.10;;;;;;4938406;29;20202;-78
2021/04/28 03:03:33;;;;;;;1.88;1.30;;;10.00;90.10;;;;;;4938288;29;20167;-78
2021/04/28 03:05:59;;;;;;;0.55;0.55;;;9.90;90.10;;;;;;4938412;29;20658;-77
2021/04/28 03:08:24;;;;;;;0.85;0.85;;;9.90;90.30;;;;;;4953266;28;20239;-77
2021/04/28 03:10:51;;;;;;;0.40;0.40;;;10.00;90.20;;;;;;4938430;29;20543;-77
2021/04/28 03:13:18;;;;;;;1.02;0.93;;;9.80;90.10;;;;;;4937985;29;20175;-78
2021/04/28 03:15:44;;;;;;;0.85;0.85;;;9.70;90.60;;;;;;4938530;29;20203;-78
2021/04/28 03:18:12;;;;;;;1.90;1.75;;;9.80;90.40;;;;;;4937261;29;20557;-76
2021/04/28 03:20:40;;;;;;;2.85;0.50;;;9.90;90.20;;;;;;4938130;29;20184;-77
2021/04/28 03:23:07;;;;;;;0.88;0.88;;;9.70;90.60;;;;;;4938041;29;20175;-76
2021/04/28 03:25:32;;;;;;;0.40;0.40;;;9.60;90.60;;;;;;4938562;29;20164;-77
2021/04/28 03:27:58;;;;;;;0.70;0.68;;;9.50;90.70;;;;;;4969001;28;20621;-78
2021/04/28 03:30:24;;;;;;;0.40;0.40;;;9.70;90.60;;;;;;4937640;29;20195;-77
2021/04/28 03:32:50;;;;;;;0.40;0.40;;;9.60;90.70;;;;;;4936548;29;20182;-78
2021/04/28 03:35:15;;;;;;;1.48;1.25;;;9.70;90.50;;;;;;4937922;29;20191;-77
2021/04/28 03:37:44;;;;;;;1.27;1.17;;;9.70;90.40;;;;;;4938025;29;20175;-78
2021/04/28 03:40:12;;;;;;;0.80;0.68;;;9.70;90.60;;;;;;4937468;29;20558;-78
2021/04/28 03:42:38;;;;;;;0.80;0.80;;;9.70;90.60;;;;;;4936557;29;20183;-77
2021/04/28 03:45:06;;;;;;;0.68;0.68;;;9.60;90.90;;;;;;4921170;29;20164;-77
2021/04/28 03:47:31;;;;;;;0.60;0.60;;;9.60;90.80;;;;;;4937670;29;20176;-78
2021/04/28 03:49:57;;;;;;;1.20;1.02;;;9.60;90.90;;;;;;4937289;29;20175;-77
2021/04/28 03:52:23;;;;;;;1.00;1.00;;;9.70;90.70;;;;;;4936788;29;20188;-77
2021/04/28 03:54:49;;;;;;;0.30;0.30;;;9.70;90.80;;;;;;4937230;29;20568;-78
2021/04/28 03:57:15;;;;;;;0.93;0.93;;;9.70;90.80;;;;;;4937229;29;20167;-78
2021/04/28 03:59:40;;;;;;;3.20;1.77;;;9.50;91.00;;;;;;4968332;28;20180;-78
2021/04/28 04:02:06;;;;;;;2.47;1.90;;;9.70;90.80;;;;;;4936099;29;20613;-77
2021/04/28 04:04:32;;;;;;;2.13;1.30;;;10.00;90.30;;;;;;4936926;29;20179;-79
2021/04/28 04:06:57;;;;;;;0.77;0.77;;;10.00;90.40;;;;;;4935370;29;20178;-77
2021/04/28 04:09:23;;;;;;;1.00;1.00;;;9.90;90.50;;;;;;4937121;29;20199;-78
2021/04/28 04:11:49;;;;;;;1.08;1.02;;;10.00;90.40;;;;;;4933842;29;20269;-77
2021/04/28 04:14:15;;;;;;;0.77;0.77;;;9.90;90.50;;;;;;4937057;29;20175;-77
2021/04/28 04:16:41;;;;;;;0.93;0.93;;;9.70;91.00;;;;;;4937034;29;20179;-78
2021/04/28 04:19:06;;;;;;;1.75;0.63;;;9.50;91.20;;;;;;4937364;29;20168;-78
2021/04/28 04:21:32;;;;;;;1.52;1.20;;;9.30;91.40;;;;;;4935759;29;20195;-78
2021/04/28 04:23:58;;;;;;;6.55;1.05;;;9.40;91.40;;;;;;4937075;29;20214;-79
2021/04/28 04:26:23;;;;;;;0.75;0.75;;;9.50;91.40;;;;;;4936753;29;20530;-78
2021/04/28 04:28:49;;;;;;;0.50;0.50;;;9.50;91.50;;;;;;4936956;29;20207;-77
2021/04/28 04:31:14;;;;;;;0.98;0.88;;;9.60;91.30;;;;;;4935801;29;20199;-78
2021/04/28 04:33:40;;;;;;;0.60;0.60;;;9.50;91.30;;;;;;4936370;29;20603;-78
2021/04/28 04:36:06;;;;;;;1.60;1.27;;;9.80;90.90;;;;;;4936911;29;20190;-78
2021/04/28 04:38:31;;;;;;;0.75;0.75;;;9.90;90.80;;;;;;4936685;29;20538;-78
2021/04/28 04:40:57;;;;;;;1.25;1.17;;;9.90;90.70;;;;;;4935682;29;20286;-77
2021/04/28 04:43:23;;;;;;;0.68;0.68;;;9.90;90.60;;;;;;4936104;29;20179;-77
2021/04/28 04:45:48;;;;;;;0.60;0.60;;;9.80;90.90;;;;;;4936707;29;20705;-80
2021/04/28 04:48:14;;;;;;;1.42;1.38;;;9.90;90.60;;;;;;4936582;29;20293;-78
2021/04/28 04:50:40;;;;;;;1.65;1.55;;;9.90;90.50;;;;;;4935570;29;20191;-78
2021/04/28 04:53:09;;;;;;;0.90;0.90;;;9.80;90.90;;;;;;4935834;29;20239;-78
2021/04/28 04:55:34;;;;;;;0.70;0.70;;;9.60;91.00;;;;;;4936584;29;20635;-77
2021/04/28 04:58:00;;;;;;;1.08;0.82;;;9.80;91.00;;;;;;4936267;29;20170;-79
2021/04/28 05:00:28;;;;;;;7.82;0.68;;;9.60;91.20;;;;;;4935387;29;20210;-78
2021/04/28 05:02:53;;;;;;;2.35;1.95;;;9.50;91.40;;;;;;4935652;29;20266;-78
2021/04/28 05:05:19;;;;;;;0.50;0.50;;;9.40;91.80;;;;;;4936257;29;20207;-79
2021/04/28 05:07:45;;;;;;;0.85;0.85;;;9.40;92.00;;;;;;4934988;29;20182;-80
2021/04/28 05:10:12;;;;;;;1.27;0.88;;;9.40;91.70;;;;;;4935732;29;20198;-79
2021/04/28 05:12:38;;;;;;;0.82;0.82;;;9.70;91.30;;;;;;4965718;28;20179;-77
2021/04/28 05:15:05;;;;;;;11.45;1.05;;;9.80;91.40;;;;;;4917169;29;20206;-78
2021/04/28 05:17:31;;;;;;;0.50;0.50;;;9.70;91.70;;;;;;4915760;29;20164;-78
2021/04/28 05:19:57;;;;;;;1.02;0.95;;;10.10;91.40;;;;;;4923470;29;20175;-78
2021/04/28 05:22:23;;;;;;;0.95;0.90;;;10.50;90.80;;;;;;4934735;29;20187;-79
2021/04/28 05:24:49;;;;;;;0.80;0.80;;;10.50;90.70;;;;;;4966571;28;20619;-83
2021/04/28 05:27:15;;;;;;;0.50;0.50;;;10.20;91.20;;;;;;4935848;29;20179;-78
2021/04/28 05:29:41;;;;;;;1.25;1.15;;;10.40;91.00;;;;;;4935593;29;20210;-78
2021/04/28 05:32:07;;;;;;;0.30;0.30;;;10.40;90.80;;;;;;4933346;29;20203;-78
2021/04/28 05:34:32;;;;;;;1.42;1.20;;;10.40;90.90;;;;;;4935456;29;20186;-78
2021/04/28 05:36:58;;;;;;;0.60;0.60;;;10.30;91.10;;;;;;4935269;29;20180;-78
2021/04/28 05:39:24;;;;;;;2.03;1.17;;;10.30;91.20;;;;;;4935787;29;20527;-79
2021/04/28 05:41:49;;;;;;;0.52;0.52;;;10.30;91.30;;;;;;4934379;29;20701;-76
2021/04/28 05:44:15;;;;;;;2.17;1.75;;;10.30;91.40;;;;;;4935786;29;20179;-78
2021/04/28 05:46:40;;;;;;;4.82;1.60;;;10.20;91.10;;;;;;4935310;29;20198;-76
2021/04/28 05:49:06;;;;;;;1.02;1.02;;;10.10;91.30;;;;;;4935602;29;20206;-76
2021/04/28 05:51:32;;;;;;;0.95;0.90;;;10.20;91.40;;;;;;4934095;29;20199;-78
2021/04/28 05:53:58;;;;;;;1.48;1.38;;;10.40;91.30;;;;;;4935157;29;20293;-78
2021/04/28 05:56:24;;;;;;;1.15;1.00;;;10.40;91.30;;;;;;4935281;29;20190;-76
2021/04/28 05:58:50;;;;;;;0.52;0.50;;;10.40;91.40;;;;;;4935661;29;20171;-76
2021/04/28 06:01:15;;;;;;;2.03;1.67;;;10.50;91.30;;;;;;4934261;29;20864;-75
2021/04/28 06:03:41;;;;;;;0.65;0.60;;;10.70;91.10;;;;;;4934901;28;20198;-78
2021/04/28 06:06:08;;;;;;;3.60;3.10;;;10.80;90.60;;;;;;4935106;29;20226;-77
2021/04/28 06:08:34;;;;;;;1.30;1.20;;;10.90;90.70;;;;;;4935280;29;20194;-79
2021/04/28 06:10:59;;;;;;;1.05;1.05;;;10.90;90.80;;;;;;4932768;29;20191;-77
2021/04/28 06:13:25;;;;;;;3.00;2.13;;;10.80;91.00;;;;;;4934772;29;20175;-76
2021/04/28 06:15:51;;;;;;;1.30;1.20;;;10.80;90.80;;;;;;4935231;29;20179;-76
2021/04/28 06:18:16;;;;;;;1.33;1.23;;;10.50;91.10;;;;;;4949501;29;20183;-76
2021/04/28 06:20:42;;;;;;;0.82;0.82;;;10.50;91.50;;;;;;4932646;29;20199;-76
2021/04/28 06:23:07;;;;;;;1.58;1.48;;;10.80;91.30;;;;;;4934315;29;20662;-76
2021/04/28 06:25:33;;;;;;;1.27;1.10;;;11.10;90.70;;;;;;4934013;29;20647;-78
2021/04/28 06:27:59;;;;;;;1.23;1.10;;;11.10;90.70;;;;;;4935112;29;20202;-77
2021/04/28 06:30:24;;;;;;;4.82;2.95;;;11.10;90.70;;;;;;4938448;29;20195;-76
2021/04/28 06:32:50;;;;;;;1.65;1.55;;;11.10;90.50;;;;;;4936387;29;20210;-77
2021/04/28 06:35:16;;;;;;;1.27;1.13;;;10.90;90.80;;;;;;4937269;29;20549;-76
2021/04/28 06:37:42;;;;;;;0.80;0.80;;;10.90;90.90;;;;;;4953232;28;20567;-76
2021/04/28 06:40:09;;;;;;;3.55;1.98;;;10.70;91.00;;;;;;4938324;29;20234;-76
2021/04/28 06:42:35;;;;;;;1.02;1.02;;;11.00;90.80;;;;;;4937855;28;20270;-76
2021/04/28 06:45:01;;;;;;;1.23;1.20;;;11.30;90.70;;;;;;4938174;29;20210;-76
2021/04/28 06:47:27;;;;;;;0.93;0.93;;;11.70;90.10;;;;;;4937804;29;20171;-77
2021/04/28 06:49:54;;;;;;;2.10;1.67;;;12.00;90.10;;;;;;4937799;29;20285;-77
2021/04/28 06:52:20;;;;;;;1.48;1.45;;;11.90;90.20;;;;;;4935916;29;20528;-75
2021/04/28 06:54:46;;;;;;;0.95;0.95;;;11.90;90.20;;;;;;4938008;29;20318;-75
2021/04/28 06:57:11;;;;;;;1.13;1.02;;;12.00;90.10;;;;;;4938418;29;20175;-78
2021/04/28 06:59:37;;;;;;;1.27;1.17;;;12.10;90.00;;;;;;4938082;29;20635;-76
2021/04/28 07:02:03;;;;;;;1.38;1.27;;;12.20;89.70;;;;;;4937462;29;20675;-77
2021/04/28 07:04:28;;;;;;;1.17;1.15;;;12.20;89.70;;;;;;4939070;29;20186;-78
2021/04/28 07:06:54;;;;;;;3.83;2.08;;;12.50;89.60;;;;;;4936812;29;20214;-76
2021/04/28 07:09:20;;;;;;;4.07;1.17;;;12.60;89.70;;;;;;4938830;29;20210;-79
2021/04/28 07:11:46;;;;;;;1.40;1.38;;;12.40;89.50;;;;;;4937854;29;20254;-76
2021/04/28 07:14:12;;;;;;;1.92;1.73;;;12.60;88.90;;;;;;4938721;29;20205;-78
2021/04/28 07:16:38;;;;;;;0.90;0.90;;;12.90;88.40;;;;;;4938362;29;20175;-79
2021/04/28 07:19:04;;;;;;;2.20;1.42;;;12.70;88.90;;;;;;4969334;28;20171;-78
2021/04/28 07:21:29;;;;;;;2.30;1.38;;;12.60;89.80;;;;;;4967772;28;20203;-79
2021/04/28 07:23:56;;;;;;;6.18;2.55;;;12.90;88.80;;;;;;4944097;29;20237;-77
2021/04/28 07:26:21;;;;;;;1.15;1.10;;;13.30;88.00;;;;;;4941254;28;20163;-79
2021/04/28 07:28:49;;;;;;;1.42;1.33;;;13.10;88.40;;;;;;4958300;28;20201;-79
2021/04/28 07:31:17;;;;;;;0.82;0.82;;;13.30;88.30;;;;;;4955504;28;20567;-78
2021/04/28 07:33:42;;;;;;;1.42;1.42;;;13.20;88.10;;;;;;4939458;29;20186;-79
2021/04/28 07:36:08;;;;;;;1.48;1.38;;;13.30;88.50;;;;;;4938102;29;20175;-80
2021/04/28 07:38:34;;;;;;;1.48;1.13;;;13.20;89.00;;;;;;4938103;29;20164;-79
2021/04/28 07:40:59;;;;;;;1.02;1.02;;;13.20;88.40;;;;;;4935962;29;20240;-79
2021/04/28 07:43:26;;;;;;;5.07;2.63;;;13.40;88.40;;;;;;4937175;29;20265;-79
2021/04/28 07:45:51;;;;;;;3.40;1.40;;;13.60;87.20;;;;;;4949288;28;20192;-79
2021/04/28 07:48:17;;;;;;;3.40;1.42;;;13.60;87.40;;;;;;4918321;29;20210;-78
2021/04/28 07:50:44;;;;;;;8.43;3.50;;;13.50;87.70;;;;;;4930763;29;20196;-78
2021/04/28 07:53:10;;;;;;;1.88;1.77;;;13.50;87.90;;;;;;4951358;29;20215;-79
2021/04/28 07:55:36;;;;;;;1.00;1.00;;;13.60;88.20;;;;;;4948573;29;20187;-78
2021/04/28 07:58:02;;;;;;;1.23;1.17;;;13.70;87.60;;;;;;4968246;28;20714;-78
2021/04/28 08:00:28;;;;;;;1.48;1.38;;;13.90;87.50;;;;;;4936873;29;20289;-78
2021/04/28 08:02:55;;;;;;;2.45;2.22;;;14.10;87.90;;;;;;4936086;29;20308;-78
2021/04/28 08:05:20;;;;;;;23.02;2.10;;;13.90;87.60;;;;;;4937725;29;20175;-78
2021/04/28 08:07:46;;;;;;;1.88;1.77;;;13.60;88.90;;;;;;4937722;29;20170;-78
2021/04/28 08:10:12;;;;;;;1.80;1.70;;;13.70;88.00;;;;;;4936726;29;20201;-79
2021/04/28 08:12:38;;;;;;;2.47;1.42;;;13.70;88.40;;;;;;4935553;29;20179;-78
2021/04/28 08:15:06;;;;;;;2.97;1.35;;;13.70;88.00;;;;;;4936948;29;20167;-79
2021/04/28 08:17:32;;;;;;;1.70;1.60;;;13.80;88.00;;;;;;4937483;29;20698;-77
2021/04/28 08:19:58;;;;;;;1.52;1.45;;;14.00;87.70;;;;;;4918604;28;20234;-78
2021/04/28 08:22:25;;;;;;;3.28;2.20;;;14.10;87.80;;;;;;4936562;29;20215;-77
2021/04/28 08:24:51;;;;;;;0.93;0.93;;;14.20;87.80;;;;;;4947052;29;20179;-78
2021/04/28 08:27:17;;;;;;;0.75;0.75;;;14.40;87.10;;;;;;4937400;29;20235;-78
2021/04/28 08:29:43;;;;;;;0.73;0.73;;;14.60;87.40;;;;;;4936639;29;20626;-78
2021/04/28 08:32:08;;;;;;;4.22;2.53;;;14.80;86.40;;;;;;4934599;29;20242;-79
2021/04/28 08:34:34;;;;;;;8.75;3.13;;;15.00;86.10;;;;;;4937994;29;20163;-81
2021/04/28 08:36:59;;;;;;;1.52;1.10;;;15.10;86.20;;;;;;4939261;29;20240;-85
2021/04/28 08:39:25;;;;;;;2.92;1.80;;;15.30;86.40;;;;;;4937992;29;20163;-82
2021/04/28 08:42:34;;;;;;;4.05;2.20;;;15.60;85.30;;;;;;4936635;29;20198;-84
2021/04/28 08:45:00;;;;;;;1.92;1.83;;;15.60;85.40;;;;;;4937065;29;20283;-78
2021/04/28 08:47:26;;;;;;;1.67;1.58;;;15.80;84.80;;;;;;4967489;28;20210;-78
2021/04/28 08:49:52;;;;;;;1.08;0.98;;;15.90;84.90;;;;;;4937218;29;20222;-77
2021/04/28 08:52:18;;;;;;;1.52;1.42;;;16.00;85.60;;;;;;4936678;29;20175;-79
2021/04/28 08:54:44;;;;;;;2.30;1.60;;;16.20;84.90;;;;;;4988114;23;20250;-77
2021/04/28 08:57:10;;;;;;;10.68;3.25;;;16.50;84.80;;;;;;4972410;28;20213;-77
2021/04/28 08:59:37;;;;;;;8.63;1.48;;;16.30;84.60;;;;;;4980660;28;20178;-77
2021/04/28 09:02:22;;;;;;;2.35;1.50;;;16.60;84.50;;;;;;4945550;28;20210;-77
2021/04/28 09:05:09;;;;;;;4.70;1.35;;;16.50;82.90;;;;;;4954551;29;20265;-77
2021/04/28 09:07:35;;;;;;;1.75;1.60;;;16.40;84.00;;;;;;4943299;29;20187;-77
2021/04/28 09:10:10;;;;;;;0.82;0.82;;;16.50;84.50;;;;;;4939286;29;20301;-77
2021/04/28 09:12:38;;;;;;;2.72;2.13;;;16.90;83.70;;;;;;4937516;29;20754;-77
2021/04/28 09:15:06;;;;;;;2.58;2.38;;;16.90;83.30;;;;;;4935755;29;20175;-82
2021/04/28 09:17:49;;;;;;;2.10;1.65;;;16.90;83.50;;;;;;4937419;29;20544;-79
2021/04/28 09:20:46;;;;;;;0.93;0.93;;;16.30;84.20;;;;;;4938662;29;20715;-79
2021/04/28 09:23:12;;;;;;;1.73;1.08;;;16.90;85.40;;;;;;4937436;29;20551;-79
2021/04/28 09:25:42;;;;;;;2.08;0.85;;;16.90;82.00;;;;;;4951327;28;20171;-79
2021/04/28 09:28:32;;;;;;;1.00;0.98;;;16.80;81.70;;;;;;4933137;29;20211;-79
2021/04/28 09:31:06;;;;;;;2.38;1.52;;;16.80;81.80;;;;;;4935700;29;20202;-80
2021/04/28 09:33:56;;;;;;;2.45;2.25;;;17.10;80.80;;;;;;4934837;29;20206;-80
2021/04/28 09:36:24;;;;;;;2.88;1.95;;;17.30;81.20;;;;;;4937917;29;20262;-80
2021/04/28 09:38:52;;;;;;;1.58;1.48;;;17.30;81.40;;;;;;4951228;29;20174;-79
2021/04/28 09:41:32;;;;;;;1.75;1.50;;;17.10;80.80;;;;;;4944520;28;20198;-79
2021/04/28 09:43:58;;;;;;;2.25;2.05;;;17.00;81.30;;;;;;4935832;29;20253;-79
2021/04/28 09:46:24;;;;;;;5.70;2.33;;;17.20;80.50;;;;;;4935839;29;20255;-80
2021/04/28 09:49:06;;;;;;;1.85;1.38;;;17.40;80.00;;;;;;4936107;29;20598;-79
2021/04/28 09:51:36;;;;;;;2.65;1.85;;;17.50;80.20;;;;;;4935634;29;20233;-79
2021/04/28 09:54:14;;;;;;;5.63;2.08;;;17.40;79.60;;;;;;4935342;29;20694;-79
2021/04/28 09:56:41;;;;;;;1.70;1.48;;;17.30;79.80;;;;;;4934161;29;20275;-81
2021/04/28 09:59:07;;;;;;;1.00;0.98;;;17.20;78.90;;;;;;4937110;29;20174;-80
2021/04/28 10:01:41;;;;;;;4.10;2.17;;;17.10;81.20;;;;;;4934853;29;20278;-81
2021/04/28 10:04:09;;;;;;;3.33;1.60;;;17.10;80.50;;;;;;4937233;29;20198;-79
2021/04/28 10:06:46;;;;;;;0.98;0.93;;;17.20;80.50;;;;;;4938959;29;20163;-80
2021/04/28 10:09:38;;;;;;;2.58;2.25;;;17.40;78.40;;;;;;4938906;29;20199;-80
2021/04/28 10:12:08;;;;;;;4.45;2.90;;;17.20;76.70;;;;;;4937732;29;20550;-78
2021/04/28 10:14:35;;;;;;;2.88;2.42;;;17.40;77.20;;;;;;4939134;29;20179;-77
2021/04/28 10:17:03;;;;;;;3.20;1.25;;;17.40;79.20;;;;;;4938239;29;20670;-78
2021/04/28 10:19:31;;;;;;;2.08;1.10;;;17.50;78.20;;;;;;4938870;29;20162;-80
2021/04/28 10:22:07;;;;;;;2.00;1.77;;;17.40;77.30;;;;;;4939193;29;20187;-78
2021/04/28 10:24:32;;;;;;;1.15;1.05;;;17.40;77.90;;;;;;4939275;29;20619;-78
2021/04/28 10:26:58;;;;;;;1.42;1.33;;;17.40;77.80;;;;;;4938852;29;20163;-77
2021/04/28 10:29:25;;;;;;;2.60;1.38;;;17.50;76.10;;;;;;4937534;29;20199;-77
2021/04/28 10:31:53;;;;;;;3.63;1.67;;;17.60;75.70;;;;;;4938738;29;20187;-78
2021/04/28 10:34:31;;;;;;;4.13;2.47;;;17.80;75.30;;;;;;4938781;29;20591;-78
2021/04/28 10:36:58;;;;;;;1.33;1.27;;;17.80;72.70;;;;;;4937641;29;20186;-79
2021/04/28 10:39:25;;;;;;;1.92;1.83;;;17.70;73.90;;;;;;4938944;29;20660;-81
2021/04/28 10:41:56;;;;;;;2.25;1.65;;;17.40;75.60;;;;;;4936844;29;20187;-82
2021/04/28 10:44:31;;;;;;;2.97;2.30;;;17.40;74.80;;;;;;4937266;29;20179;-80
2021/04/28 10:47:27;;;;;;;9.23;2.85;;;17.40;76.00;;;;;;4956447;28;20177;-80
2021/04/28 10:50:22;;;;;;;3.28;2.92;;;17.50;75.70;;;;;;4972588;28;20256;-81
2021/04/28 10:52:59;;;;;;;1.85;1.73;;;17.60;74.80;;;;;;4957432;28;20634;-81
2021/04/28 10:55:51;;;;;;;4.63;2.13;;;17.70;75.30;;;;;;4956077;28;20842;-81
2021/04/28 10:58:24;;;;;;;1.67;1.58;;;17.80;75.60;;;;;;4957070;28;20166;-80
2021/04/28 11:00:59;;;;;;;1.63;1.52;;;18.00;75.00;;;;;;4956839;28;20713;-83
2021/04/28 11:03:31;;;;;;;1.50;1.40;;;18.00;74.80;;;;;;4956291;28;20510;-83
2021/04/28 11:06:20;;;;;;;0.88;0.82;;;18.20;75.20;;;;;;4942790;28;20213;-83
2021/04/28 11:08:56;;;;;;;6.95;1.70;;;18.10;75.30;;;;;;4936898;29;20203;-82
2021/04/28 11:11:42;;;;;;;3.17;2.45;;;18.30;76.00;;;;;;4936141;29;20558;-82
2021/04/28 11:14:18;;;;;;;2.25;1.75;;;18.20;78.90;;;;;;4936728;29;20183;-85
2021/04/28 11:16:49;;;;;;;2.90;2.10;;;18.20;77.60;;;;;;4936581;29;20627;-83
2021/04/28 11:19:37;;;;;;;2.47;2.05;;;18.20;76.70;;;;;;4938070;29;20167;-83
2021/04/28 11:22:03;;;;;;;3.05;1.95;;;18.20;75.70;;;;;;4937575;29;20314;-80
2021/04/28 11:24:48;;;;;;;1.48;1.38;;;18.30;77.00;;;;;;4937035;29;20262;-78
2021/04/28 11:27:46;;;;;;;3.17;1.88;;;18.30;77.80;;;;;;4937094;29;20517;-77
2021/04/28 11:30:24;;;;;;;4.57;2.03;;;18.30;78.20;;;;;;4937377;29;20630;-78
2021/04/28 11:33:12;;;;;;;3.97;2.08;;;18.60;80.60;;;;;;4936020;29;20175;-78
2021/04/28 11:36:02;;;;;;;2.63;2.42;;;18.60;78.20;;;;;;4937612;29;20163;-78
2021/04/28 11:38:30;;;;;;;2.00;1.90;;;18.70;77.10;;;;;;4939720;29;20245;-78
2021/04/28 11:41:02;;;;;;;3.83;2.38;;;18.90;77.20;;;;;;4938188;29;20198;-78
2021/04/28 11:43:50;;;;;;;7.93;1.70;;;19.20;77.70;;;;;;4938048;29;20210;-78
2021/04/28 11:46:16;;;;;;;5.05;1.73;;;19.30;78.30;;;;;;4937636;29;20673;-78
2021/04/28 11:48:45;;;;;;;4.68;2.30;;;19.30;76.70;;;;;;4937787;29;20191;-77
2021/04/28 11:51:16;;;;;;;6.55;2.95;;;19.30;77.90;;;;;;4938124;29;20191;-77
2021/04/28 11:53:56;;;;;;;3.78;2.15;;;19.40;77.70;;;;;;4937486;29;20266;-78
2021/04/28 11:56:42;;;;;;;1.88;1.38;;;19.30;77.20;;;;;;4937299;29;20504;-78
2021/04/28 11:59:19;;;;;;;3.42;2.90;;;19.20;76.60;;;;;;4937258;29;20256;-78
2021/04/28 12:01:45;;;;;;;1.42;1.33;;;19.10;77.80;;;;;;4936961;29;20226;-77
2021/04/28 12:04:11;;;;;;;1.42;1.33;;;19.00;77.00;;;;;;4936986;29;20167;-77
2021/04/28 12:06:45;;;;;;;6.60;2.85;;;19.10;77.10;;;;;;4936859;29;20570;-78
2021/04/28 12:09:32;;;;;;;3.25;2.38;;;18.90;79.50;;;;;;4935621;29;20207;-78
2021/04/28 12:12:23;;;;;;;6.07;3.47;;;19.10;76.60;;;;;;4936965;29;20713;-78
2021/04/28 12:15:10;;;;;;;2.72;2.47;;;18.90;77.20;;;;;;4937048;29;20171;-78
2021/04/28 12:17:41;;;;;;;2.70;1.70;;;19.10;76.30;;;;;;4937242;29;20167;-77
2021/04/28 12:20:27;;;;;;;1.98;1.77;;;19.30;77.00;;;;;;4936824;29;20214;-78
2021/04/28 12:22:53;;;;;;;1.48;1.38;;;19.20;76.70;;;;;;4936487;29;20278;-78
2021/04/28 12:25:20;;;;;;;2.20;2.00;;;19.40;75.90;;;;;;4937058;29;20731;-78
2021/04/28 12:27:49;;;;;;;5.07;2.88;;;19.50;75.40;;;;;;4936724;29;20202;-77
2021/04/28 12:30:24;;;;;;;2.75;1.88;;;19.50;75.40;;;;;;4937328;29;20606;-78
2021/04/28 12:32:56;;;;;;;4.80;2.40;;;19.70;75.00;;;;;;4936868;29;20603;-78
2021/04/28 12:35:27;;;;;;;4.57;2.53;;;19.90;75.30;;;;;;4936979;29;20202;-78
2021/04/28 12:38:00;;;;;;;1.83;1.63;;;19.90;74.40;;;;;;4935634;29;20206;-78
2021/04/28 12:40:52;;;;;;;1.98;1.77;;;20.00;74.70;;;;;;4936383;29;20191;-78
2021/04/28 12:43:33;;;;;;;2.05;1.60;;;19.80;75.30;;;;;;4935130;29;20199;-78
2021/04/28 12:46:11;;;;;;;1.33;1.23;;;20.10;75.00;;;;;;4936350;29;20174;-78
2021/04/28 12:48:55;;;;;;;2.55;1.83;;;20.20;73.80;;;;;;4936409;29;20293;-77
2021/04/28 12:51:23;;;;;;;2.72;2.28;;;20.30;73.50;;;;;;4936210;29;20195;-78
2021/04/28 12:53:49;;;;;;;5.63;2.42;;;20.40;74.00;;;;;;4936568;29;20306;-78
2021/04/28 12:56:15;;;;;;;1.92;1.83;;;20.00;74.10;;;;;;4935264;29;20187;-78
2021/04/28 12:58:46;;;;;;;9.85;4.03;;;19.80;74.90;;;;;;4936606;29;20175;-78